createdAt,value
2019-03-04T00:03:02.580Z,98889.77
2019-03-04T00:06:07.091Z,98892.41
2019-03-04T00:09:12.279Z,98889.38
2019-03-04T00:12:16.810Z,98903.12
2019-03-04T00:15:23.543Z,98900.02
2019-03-04T00:18:27.965Z,98879.93
2019-03-04T00:21:32.434Z,98877.01
2019-03-04T00:24:36.782Z,98876.09
2019-03-04T00:27:41.358Z,98878.41
2019-03-04T00:30:45.770Z,98857.25
2019-03-04T00:33:50.381Z,98867.88
2019-03-04T00:36:54.869Z,98864.39
2019-03-04T00:39:59.518Z,98849.41
2019-03-04T00:43:05.295Z,98851.95
2019-03-04T00:46:09.798Z,98861.24
2019-03-04T00:49:14.436Z,98853.48
2019-03-04T00:52:18.958Z,98858.43
2019-03-04T00:55:23.347Z,98851.95
2019-03-04T00:58:28.146Z,98843.13
2019-03-04T01:01:32.590Z,98836.06
2019-03-04T01:04:38.190Z,98828.09
2019-03-04T01:07:42.848Z,98826.00
2019-03-04T01:10:47.369Z,98827.27
2019-03-04T01:13:52.014Z,98815.56
2019-03-04T01:16:56.511Z,98819.77
2019-03-04T01:20:00.840Z,98810.45
2019-03-04T01:23:08.160Z,98811.45
2019-03-04T01:26:12.573Z,98809.02
2019-03-04T01:29:16.896Z,98798.48
2019-03-04T01:32:21.369Z,98795.05
2019-03-04T01:35:25.689Z,98783.15
2019-03-04T01:38:36.219Z,98780.19
2019-03-04T01:41:40.763Z,98780.42
2019-03-04T01:44:45.105Z,98766.13
2019-03-04T01:47:51.386Z,98749.44
2019-03-04T01:50:55.668Z,98760.30
2019-03-04T01:53:59.962Z,98742.69
2019-03-04T01:57:05.990Z,98747.59
2019-03-04T02:00:13.792Z,98743.30
2019-03-04T02:03:18.193Z,98739.27
2019-03-04T02:06:22.531Z,98716.23
2019-03-04T02:09:27.139Z,98711.84
2019-03-04T02:12:31.615Z,98698.36
2019-03-04T02:15:35.985Z,98702.90
2019-03-04T02:18:40.406Z,98706.17
2019-03-04T02:21:44.897Z,98706.63
2019-03-04T02:24:49.330Z,98689.22
2019-03-04T02:27:55.096Z,98679.11
2019-03-04T02:30:59.510Z,98694.79
2019-03-04T02:34:06.332Z,98688.87
2019-03-04T02:37:10.736Z,98685.70
2019-03-04T02:40:15.109Z,98684.92
2019-03-04T02:43:19.631Z,98679.00
2019-03-04T02:46:24.101Z,98662.11
2019-03-04T02:49:28.545Z,98642.59
2019-03-04T02:52:32.936Z,98626.59
2019-03-04T02:55:39.291Z,98620.87
2019-03-04T02:58:43.719Z,98622.97
2019-03-04T03:01:48.094Z,98623.23
2019-03-04T03:04:52.543Z,98622.57
2019-03-04T03:07:57.025Z,98607.97
2019-03-04T03:11:01.505Z,98600.73
2019-03-04T03:14:06.024Z,98596.19
2019-03-04T03:17:10.587Z,98598.51
2019-03-04T03:20:15.066Z,98597.38
2019-03-04T03:23:19.586Z,98579.74
2019-03-04T03:26:24.081Z,98584.59
2019-03-04T03:29:28.446Z,98587.12
2019-03-04T03:32:32.881Z,98567.30
2019-03-04T03:35:37.424Z,98564.05
2019-03-04T03:38:41.761Z,98550.41
2019-03-04T03:41:46.399Z,98555.16
2019-03-04T03:44:50.744Z,98542.17
2019-03-04T03:47:55.170Z,98550.60
2019-03-04T03:50:59.598Z,98530.61
2019-03-04T03:54:03.918Z,98519.96
2019-03-04T03:57:08.459Z,98507.46
2019-03-04T04:00:15.488Z,98494.84
2019-03-04T04:03:19.960Z,98512.47
2019-03-04T04:06:24.405Z,98497.57
2019-03-04T04:09:28.800Z,98478.04
2019-03-04T04:12:36.229Z,98480.78
2019-03-04T04:15:40.711Z,98493.88
2019-03-04T04:18:45.129Z,98483.34
2019-03-04T04:21:49.675Z,98489.41
2019-03-04T04:24:54.463Z,98471.59
2019-03-04T04:27:59.009Z,98470.83
2019-03-04T04:31:03.756Z,98463.05
2019-03-04T04:34:09.594Z,98453.73
2019-03-04T04:37:13.879Z,98439.14
2019-03-04T04:40:18.371Z,98427.58
2019-03-04T04:43:22.851Z,98405.14
2019-03-04T04:46:52.421Z,98397.97
2019-03-04T04:49:57.049Z,98395.99
2019-03-04T04:53:01.429Z,98382.33
2019-03-04T04:56:05.754Z,98381.84
2019-03-04T04:59:10.251Z,98374.26
2019-03-04T05:02:14.987Z,98364.14
2019-03-04T05:05:19.424Z,98366.89
2019-03-04T05:08:24.113Z,98349.72
2019-03-04T05:11:28.524Z,98334.94
2019-03-04T05:14:35.177Z,98312.28
2019-03-04T05:17:40.004Z,98305.82
2019-03-04T05:20:58.247Z,98304.31
2019-03-04T05:23:53.886Z,98298.03
2019-03-04T05:26:58.743Z,98276.83
2019-03-04T05:30:03.203Z,98269.83
2019-03-04T05:33:07.748Z,98256.63
2019-03-04T05:36:12.117Z,98250.64
2019-03-04T05:39:16.510Z,98248.09
2019-03-04T05:42:20.850Z,98235.97
2019-03-04T05:45:34.242Z,98215.60
2019-03-04T05:48:38.566Z,98204.11
2019-03-04T05:51:43.144Z,98183.17
2019-03-04T05:54:47.613Z,98178.14
2019-03-04T05:57:52.073Z,98178.96
2019-03-04T06:01:16.276Z,98161.08
2019-03-04T06:04:23.303Z,98149.13
2019-03-04T06:07:58.683Z,98132.55
2019-03-04T06:11:03.026Z,98135.78
2019-03-04T06:14:08.332Z,98125.66
2019-03-04T06:17:12.618Z,98113.43
2019-03-04T06:20:17.947Z,98100.29
2019-03-04T06:23:22.238Z,98096.89
2019-03-04T06:26:26.560Z,98081.88
2019-03-04T06:29:30.926Z,98081.59
2019-03-04T06:32:35.404Z,98068.25
2019-03-04T06:35:40.002Z,98064.85
2019-03-04T06:38:44.628Z,98052.25
2019-03-04T06:41:48.965Z,98044.34
2019-03-04T06:44:53.305Z,98038.73
2019-03-04T06:47:57.603Z,98032.63
2019-03-04T06:51:02.751Z,98019.94
2019-03-04T06:54:20.895Z,98017.28
2019-03-04T06:57:32.005Z,98006.75
2019-03-04T07:00:51.124Z,98008.67
2019-03-04T07:04:09.820Z,98003.81
2019-03-04T07:07:14.330Z,97997.34
2019-03-04T07:10:18.678Z,97976.08
2019-03-04T07:13:23.074Z,97966.08
2019-03-04T07:16:27.649Z,97951.84
2019-03-04T07:19:34.278Z,97951.52
2019-03-04T07:22:38.555Z,97938.69
2019-03-04T07:25:42.863Z,97946.55
2019-03-04T07:28:47.191Z,97933.43
2019-03-04T07:31:51.561Z,97922.22
2019-03-04T07:34:56.088Z,97923.91
2019-03-04T07:38:28.411Z,97920.65
2019-03-04T07:41:40.818Z,97971.86
2019-03-04T07:44:48.072Z,97954.33
2019-03-04T07:47:52.456Z,97966.45
2019-03-04T07:50:58.577Z,97981.32
2019-03-04T07:54:02.923Z,97970.82
2019-03-04T07:57:07.247Z,97951.13
2019-03-04T08:00:12.325Z,97958.02
2019-03-04T08:03:16.742Z,97969.17
2019-03-04T08:06:21.147Z,97948.02
2019-03-04T08:10:02.903Z,97934.12
2019-03-04T08:13:17.951Z,97927.55
2019-03-04T08:16:22.438Z,97919.99
2019-03-04T08:19:26.838Z,97912.13
2019-03-04T08:22:31.259Z,97902.87
2019-03-04T08:25:35.870Z,97881.70
2019-03-04T08:28:40.312Z,97875.05
2019-03-04T08:31:44.719Z,97863.17
2019-03-04T08:34:49.089Z,97862.85
2019-03-04T08:37:53.433Z,97857.95
2019-03-04T08:40:58.103Z,97904.17
2019-03-04T08:44:02.586Z,97893.98
2019-03-04T08:47:06.963Z,97907.68
2019-03-04T08:50:12.095Z,97891.82
2019-03-04T08:53:16.405Z,97867.78
2019-03-04T08:56:20.770Z,97862.20
2019-03-04T08:59:25.157Z,97869.22
2019-03-04T09:02:29.519Z,97862.42
2019-03-04T09:05:34.169Z,97846.21
2019-03-04T09:08:38.543Z,97850.58
2019-03-04T09:11:42.893Z,97851.72
2019-03-04T09:14:51.648Z,97864.67
2019-03-04T09:17:55.992Z,97873.19
2019-03-04T09:21:01.575Z,97882.68
2019-03-04T09:24:05.918Z,97871.42
2019-03-04T09:27:10.298Z,97880.38
2019-03-04T09:30:14.998Z,97863.53
2019-03-04T09:33:19.298Z,97866.56
2019-03-04T09:36:23.663Z,97872.17
2019-03-04T09:39:27.993Z,97872.33
2019-03-04T09:42:32.707Z,97869.22
2019-03-04T09:45:39.173Z,97869.86
2019-03-04T09:48:43.263Z,97871.95
2019-03-04T09:51:47.564Z,97865.61
2019-03-04T09:54:52.303Z,97866.09
2019-03-04T09:57:59.801Z,97864.11
2019-03-04T10:01:33.301Z,97871.81
2019-03-04T10:05:20.834Z,97877.83
2019-03-04T10:08:33.490Z,97867.29
2019-03-04T10:12:15.393Z,97853.30
2019-03-04T10:15:51.794Z,97827.23
2019-03-04T10:19:49.813Z,97837.73
2019-03-04T10:23:07.676Z,97848.89
2019-03-04T10:27:14.025Z,97857.11
2019-03-04T10:31:01.369Z,97851.05
2019-03-04T10:34:47.172Z,97853.13
2019-03-04T10:38:42.955Z,97856.37
2019-03-04T10:42:43.293Z,97847.77
2019-03-04T10:46:19.708Z,97851.11
2019-03-04T10:49:25.121Z,97849.55
2019-03-04T10:52:29.612Z,97840.81
2019-03-04T10:55:41.494Z,97846.05
2019-03-04T10:58:40.157Z,97845.41
2019-03-04T11:01:44.561Z,97838.59
2019-03-04T11:04:48.900Z,97830.59
2019-03-04T11:07:53.320Z,97831.80
2019-03-04T11:10:57.664Z,97831.31
2019-03-04T11:14:02.086Z,97828.66
2019-03-04T11:17:06.524Z,97830.94
2019-03-04T11:20:10.885Z,97841.25
2019-03-04T11:23:15.352Z,97848.27
2019-03-04T11:26:19.868Z,97845.91
2019-03-04T11:29:24.210Z,97840.19
2019-03-04T11:32:28.826Z,97847.72
2019-03-04T11:35:35.015Z,97843.76
2019-03-04T11:38:41.852Z,97848.12
2019-03-04T11:41:48.666Z,97849.23
2019-03-04T11:44:53.101Z,97842.83
2019-03-04T11:47:57.693Z,97861.64
2019-03-04T11:51:02.316Z,97859.56
2019-03-04T11:54:06.832Z,97870.33
2019-03-04T11:57:13.804Z,97852.81
2019-03-04T12:00:23.436Z,97886.85
2019-03-04T12:03:27.816Z,97869.15
2019-03-04T12:06:32.161Z,97875.74
2019-03-04T12:09:36.486Z,97863.69
2019-03-04T12:12:40.958Z,97874.84
2019-03-04T12:15:45.512Z,97859.91
2019-03-04T12:18:49.924Z,97873.59
2019-03-04T12:21:54.357Z,97878.70
2019-03-04T12:24:58.704Z,97866.02
2019-03-04T12:28:03.061Z,97866.24
2019-03-04T12:31:07.561Z,97863.47
2019-03-04T12:34:13.547Z,97864.38
2019-03-04T12:37:17.939Z,97855.13
2019-03-04T12:40:22.456Z,97859.75
2019-03-04T12:43:26.768Z,97873.58
2019-03-04T12:46:33.850Z,97860.23
2019-03-04T12:49:38.122Z,97865.66
2019-03-04T12:52:42.590Z,97853.83
2019-03-04T12:55:48.318Z,97849.01
2019-03-04T12:58:52.702Z,97852.20
2019-03-04T13:01:58.110Z,97854.89
2019-03-04T13:05:02.392Z,97836.57
2019-03-04T13:08:09.355Z,97850.38
2019-03-04T13:11:13.908Z,97836.99
2019-03-04T13:14:18.228Z,97832.33
2019-03-04T13:17:22.765Z,97829.43
2019-03-04T13:20:27.131Z,97810.03
2019-03-04T13:23:31.710Z,97812.00
2019-03-04T13:26:36.046Z,97818.38
2019-03-04T13:29:40.350Z,97801.53
2019-03-04T13:32:46.206Z,97827.61
2019-03-04T13:35:50.674Z,97801.23
2019-03-04T13:38:55.155Z,97818.60
2019-03-04T13:42:01.673Z,97797.77
2019-03-04T13:45:08.217Z,97801.06
2019-03-04T13:48:12.522Z,97807.17
2019-03-04T13:51:16.931Z,97795.45
2019-03-04T13:54:21.401Z,97804.44
2019-03-04T13:57:25.722Z,97796.31
2019-03-04T14:00:32.071Z,97782.45
2019-03-04T14:03:36.607Z,97793.48
2019-03-04T14:06:40.894Z,97783.58
2019-03-04T14:09:48.463Z,97773.77
2019-03-04T14:12:52.864Z,97767.70
2019-03-04T14:15:57.384Z,97793.52
2019-03-04T14:19:01.704Z,97782.75
2019-03-04T14:22:06.015Z,97760.84
2019-03-04T14:25:12.490Z,97778.23
2019-03-04T14:28:16.987Z,97769.31
2019-03-04T14:31:21.540Z,97761.27
2019-03-04T14:34:25.904Z,97757.08
2019-03-04T14:37:30.213Z,97745.10
2019-03-04T14:40:34.557Z,97744.37
2019-03-04T14:43:39.042Z,97741.47
2019-03-04T14:46:45.877Z,97742.83
2019-03-04T14:49:50.201Z,97740.09
2019-03-04T14:52:54.527Z,97729.95
2019-03-04T14:56:01.137Z,97723.42
2019-03-04T14:59:10.983Z,97712.92
2019-03-04T15:02:11.481Z,97719.31
2019-03-04T15:05:15.904Z,97738.95
2019-03-04T15:08:20.268Z,97716.74
2019-03-04T15:11:24.538Z,97723.17
2019-03-04T15:14:28.944Z,97719.02
2019-03-04T15:17:33.415Z,97716.88
2019-03-04T15:20:38.309Z,97711.91
2019-03-04T15:23:42.631Z,97739.77
2019-03-04T15:26:47.023Z,97725.50
2019-03-04T15:29:51.633Z,97739.19
2019-03-04T15:32:58.660Z,97723.21
2019-03-04T15:36:03.161Z,97722.55
2019-03-04T15:39:22.618Z,97718.44
2019-03-04T15:42:21.299Z,97728.77
2019-03-04T15:45:25.990Z,97743.70
2019-03-04T15:48:30.601Z,97750.08
2019-03-04T15:51:34.976Z,97749.92
2019-03-04T15:54:40.296Z,97760.12
2019-03-04T15:57:44.631Z,97776.40
2019-03-04T16:00:52.130Z,97763.09
2019-03-04T16:03:57.752Z,97770.77
2019-03-04T16:07:02.214Z,97776.80
2019-03-04T16:10:08.631Z,97763.84
2019-03-04T16:13:13.025Z,97768.39
2019-03-04T16:16:20.151Z,97768.05
2019-03-04T16:19:24.534Z,97781.17
2019-03-04T16:22:28.878Z,97807.64
2019-03-04T16:25:35.039Z,97789.76
2019-03-04T16:28:39.574Z,97803.24
2019-03-04T16:31:44.030Z,97809.52
2019-03-04T16:34:48.342Z,97806.34
2019-03-04T16:37:52.704Z,97795.46
2019-03-04T16:40:57.030Z,97810.17
2019-03-04T16:44:01.567Z,97817.14
2019-03-04T16:47:06.317Z,97800.52
2019-03-04T16:50:12.202Z,97801.96
2019-03-04T16:53:17.319Z,97830.96
2019-03-04T16:56:21.852Z,97850.43
2019-03-04T16:59:26.162Z,97850.67
2019-03-04T17:02:30.537Z,97851.47
2019-03-04T17:05:34.830Z,97848.38
2019-03-04T17:08:39.151Z,97879.78
2019-03-04T17:11:43.808Z,97876.59
2019-03-04T17:14:48.306Z,97906.91
2019-03-04T17:17:52.655Z,97884.50
2019-03-04T17:20:57.095Z,97897.87
2019-03-04T17:24:02.014Z,97888.00
2019-03-04T17:27:06.644Z,97914.98
2019-03-04T17:30:12.951Z,97896.22
2019-03-04T17:33:17.530Z,97917.53
2019-03-04T17:36:21.976Z,97909.08
2019-03-04T17:39:26.414Z,97862.70
2019-03-04T17:42:30.947Z,97931.39
2019-03-04T17:45:35.350Z,97928.52
2019-03-04T17:48:39.789Z,97945.67
2019-03-04T17:51:44.119Z,97950.80
2019-03-04T17:54:48.671Z,97944.81
2019-03-04T17:57:53.011Z,97957.99
2019-03-04T18:00:57.846Z,97963.16
2019-03-04T18:04:02.419Z,97971.16
2019-03-04T18:07:06.905Z,97984.44
2019-03-04T18:10:13.911Z,97977.44
2019-03-04T18:13:18.378Z,97983.34
2019-03-04T18:16:22.759Z,97975.88
2019-03-04T18:19:27.387Z,98002.56
2019-03-04T18:22:31.896Z,98014.12
2019-03-04T18:25:45.086Z,98001.65
2019-03-04T18:29:12.751Z,98028.30
2019-03-04T18:32:49.843Z,98016.98
2019-03-04T18:36:31.907Z,98042.98
2019-03-04T18:40:15.781Z,98004.03
2019-03-04T18:44:04.094Z,98058.95
2019-03-04T18:47:44.127Z,98076.31
2019-03-04T18:50:48.543Z,98052.36
2019-03-04T18:53:54.625Z,98068.27
2019-03-04T18:56:59.043Z,98096.50
2019-03-04T19:00:03.468Z,98079.73
2019-03-04T19:03:07.804Z,98075.63
2019-03-04T19:06:13.897Z,98087.09
2019-03-04T19:09:21.498Z,98111.23
2019-03-04T19:12:25.928Z,98084.62
2019-03-04T19:15:30.633Z,98109.52
2019-03-04T19:18:35.284Z,98124.57
2019-03-04T19:21:39.648Z,98138.22
2019-03-04T19:24:44.407Z,98123.02
2019-03-04T19:27:48.974Z,98151.67
2019-03-04T19:30:53.504Z,98178.88
2019-03-04T19:33:58.109Z,98156.55
2019-03-04T19:37:02.779Z,98217.44
2019-03-04T19:40:07.758Z,98215.19
2019-03-04T19:43:12.578Z,98223.41
2019-03-04T19:46:17.335Z,98226.17
2019-03-04T19:49:22.185Z,98252.44
2019-03-04T19:52:28.060Z,98261.08
2019-03-04T19:55:32.499Z,98260.39
2019-03-04T19:58:37.061Z,98252.20
2019-03-04T20:01:42.343Z,98250.34
2019-03-04T20:04:47.293Z,98253.76
2019-03-04T20:07:52.787Z,98254.19
2019-03-04T20:10:57.789Z,98241.00
2019-03-04T20:14:02.857Z,98259.58
2019-03-04T20:17:11.074Z,98293.61
2019-03-04T20:20:16.595Z,98302.98
2019-03-04T20:23:29.755Z,98303.73
2019-03-04T20:26:34.649Z,98317.53
2019-03-04T20:29:39.389Z,98321.61
2019-03-04T20:32:44.209Z,98340.39
2019-03-04T20:35:50.613Z,98353.33
2019-03-04T20:38:55.622Z,98341.80
2019-03-04T20:42:00.815Z,98337.47
2019-03-04T20:45:07.037Z,98345.17
2019-03-04T20:48:11.875Z,98346.82
2019-03-04T20:51:16.286Z,98336.44
2019-03-04T20:54:20.813Z,98349.80
2019-03-04T20:57:25.654Z,98332.07
2019-03-04T21:00:33.574Z,98340.02
2019-03-04T21:03:38.761Z,98360.50
2019-03-04T21:06:43.386Z,98368.05
2019-03-04T21:09:47.992Z,98401.19
2019-03-04T21:12:57.156Z,98416.52
2019-03-04T21:16:04.890Z,98409.18
2019-03-04T21:19:09.426Z,98417.58
2019-03-04T21:22:13.950Z,98400.89
2019-03-04T21:25:40.747Z,98405.66
2019-03-04T21:29:30.629Z,98408.93
2019-03-04T21:32:47.476Z,98429.74
2019-03-04T21:36:44.013Z,98441.64
2019-03-04T21:39:48.711Z,98434.39
2019-03-04T21:43:10.248Z,98440.73
2019-03-04T21:46:44.178Z,98453.59
2019-03-04T21:49:51.516Z,98468.80
2019-03-04T21:53:10.137Z,98480.21
2019-03-04T21:56:42.532Z,98484.63
2019-03-04T21:59:46.940Z,98449.27
2019-03-04T22:03:23.387Z,98475.65
2019-03-04T22:06:27.724Z,98491.35
2019-03-04T22:09:32.014Z,98497.80
2019-03-04T22:12:36.328Z,98495.11
2019-03-04T22:15:41.562Z,98484.48
2019-03-04T22:18:46.042Z,98475.14
2019-03-04T22:21:50.515Z,98531.95
2019-03-04T22:24:54.959Z,98522.34
2019-03-04T22:27:59.540Z,98508.36
2019-03-04T22:31:08.363Z,98509.01
2019-03-04T22:34:12.729Z,98537.22
2019-03-04T22:37:17.047Z,98540.52
2019-03-04T22:40:21.677Z,98543.76
2019-03-04T22:43:26.283Z,98550.77
2019-03-04T22:46:30.605Z,98568.22
2019-03-04T22:49:34.962Z,98563.48
2019-03-04T22:52:39.490Z,98578.53
2019-03-04T22:55:45.481Z,98586.56
2019-03-04T22:58:51.644Z,98574.42
2019-03-04T23:02:03.606Z,98584.06
2019-03-04T23:05:15.613Z,98586.17
2019-03-04T23:08:20.047Z,98597.78
2019-03-04T23:11:27.450Z,98614.93
2019-03-04T23:14:31.838Z,98605.42
2019-03-04T23:17:36.723Z,98631.81
2019-03-04T23:20:41.603Z,98611.75
2019-03-04T23:23:46.744Z,98623.37
2019-03-04T23:26:51.371Z,98631.28
2019-03-04T23:29:56.378Z,98623.25
2019-03-04T23:33:00.728Z,98618.16
2019-03-04T23:36:05.283Z,98685.80
2019-03-04T23:39:09.999Z,98649.64
2019-03-04T23:42:14.320Z,98656.77
2019-03-04T23:45:18.838Z,98667.18
2019-03-04T23:48:23.392Z,98670.08
2019-03-04T23:51:27.756Z,98664.55
2019-03-04T23:54:32.281Z,98669.94
2019-03-04T23:57:36.694Z,98686.48
